sensor_id;sensor_type;location;lat;lon;timestamp;pressure;altitude;pressure_sealevel;temperature;humidity
28630;BME280;15817;42.130;24.762;2023-07-31T00:01:53;99195.41;;;27.74;41.70
28630;BME280;15817;42.130;24.762;2023-07-31T00:04:19;99186.13;;;27.66;42.18
28630;BME280;15817;42.130;24.762;2023-07-31T00:06:45;99196.41;;;27.73;41.83
28630;BME280;15817;42.130;24.762;2023-07-31T00:09:11;99198.88;;;27.77;41.85
28630;BME280;15817;42.130;24.762;2023-07-31T00:11:36;99207.38;;;27.83;41.86
28630;BME280;15817;42.130;24.762;2023-07-31T00:14:02;99200.13;;;27.72;41.91
28630;BME280;15817;42.130;24.762;2023-07-31T00:16:28;99197.94;;;27.66;41.96
28630;BME280;15817;42.130;24.762;2023-07-31T00:18:54;99195.72;;;27.60;42.16
28630;BME280;15817;42.130;24.762;2023-07-31T00:21:20;99204.34;;;27.56;42.23
28630;BME280;15817;42.130;24.762;2023-07-31T00:23:45;99211.66;;;27.55;42.22
28630;BME280;15817;42.130;24.762;2023-07-31T00:26:11;99214.84;;;27.60;42.46
28630;BME280;15817;42.130;24.762;2023-07-31T00:28:37;99217.19;;;27.65;42.29
28630;BME280;15817;42.130;24.762;2023-07-31T00:31:03;99223.13;;;27.70;42.25
28630;BME280;15817;42.130;24.762;2023-07-31T00:33:31;99217.88;;;27.57;42.29
28630;BME280;15817;42.130;24.762;2023-07-31T00:35:57;99216.34;;;27.53;42.75
28630;BME280;15817;42.130;24.762;2023-07-31T00:38:25;99212.69;;;27.43;42.81
28630;BME280;15817;42.130;24.762;2023-07-31T00:40:50;99215.00;;;27.48;43.01
28630;BME280;15817;42.130;24.762;2023-07-31T00:43:16;99211.56;;;27.46;43.03
28630;BME280;15817;42.130;24.762;2023-07-31T00:45:42;99216.75;;;27.49;42.67
28630;BME280;15817;42.130;24.762;2023-07-31T00:48:08;99222.94;;;27.51;42.88
28630;BME280;15817;42.130;24.762;2023-07-31T00:50:35;99219.47;;;27.49;42.69
28630;BME280;15817;42.130;24.762;2023-07-31T00:53:01;99218.78;;;27.35;43.26
28630;BME280;15817;42.130;24.762;2023-07-31T00:55:26;99216.09;;;27.24;43.45
28630;BME280;15817;42.130;24.762;2023-07-31T00:57:53;99226.28;;;27.33;43.52
28630;BME280;15817;42.130;24.762;2023-07-31T01:00:21;99229.88;;;27.34;43.70
28630;BME280;15817;42.130;24.762;2023-07-31T01:02:48;99222.94;;;27.30;43.66
28630;BME280;15817;42.130;24.762;2023-07-31T01:05:14;99222.06;;;27.29;43.94
28630;BME280;15817;42.130;24.762;2023-07-31T01:07:54;99224.16;;;27.26;43.84
28630;BME280;15817;42.130;24.762;2023-07-31T01:10:26;99224.03;;;27.27;44.19
28630;BME280;15817;42.130;24.762;2023-07-31T01:12:56;99234.09;;;27.27;43.92
28630;BME280;15817;42.130;24.762;2023-07-31T01:15:23;99239.69;;;27.25;43.79
28630;BME280;15817;42.130;24.762;2023-07-31T01:17:51;99232.91;;;27.20;43.99
28630;BME280;15817;42.130;24.762;2023-07-31T01:20:20;99228.44;;;27.19;43.71
28630;BME280;15817;42.130;24.762;2023-07-31T01:23:08;99230.16;;;27.20;43.96
28630;BME280;15817;42.130;24.762;2023-07-31T01:28:45;99234.31;;;27.03;44.66
28630;BME280;15817;42.130;24.762;2023-07-31T01:31:24;99230.13;;;26.99;44.93
28630;BME280;15817;42.130;24.762;2023-07-31T01:33:53;99233.19;;;27.06;44.79
28630;BME280;15817;42.130;24.762;2023-07-31T01:36:20;99225.13;;;27.04;45.10
28630;BME280;15817;42.130;24.762;2023-07-31T01:38:45;99222.31;;;26.94;45.33
28630;BME280;15817;42.130;24.762;2023-07-31T01:41:11;99229.63;;;26.94;44.95
28630;BME280;15817;42.130;24.762;2023-07-31T01:43:37;99227.22;;;27.00;44.87
28630;BME280;15817;42.130;24.762;2023-07-31T01:46:04;99236.16;;;27.02;44.74
28630;BME280;15817;42.130;24.762;2023-07-31T01:48:30;99225.53;;;26.99;44.57
28630;BME280;15817;42.130;24.762;2023-07-31T01:51:01;99213.25;;;26.94;44.48
28630;BME280;15817;42.130;24.762;2023-07-31T01:53:27;99217.34;;;26.99;44.61
28630;BME280;15817;42.130;24.762;2023-07-31T01:55:53;99227.75;;;26.94;44.60
28630;BME280;15817;42.130;24.762;2023-07-31T01:58:19;99223.03;;;26.96;44.40
28630;BME280;15817;42.130;24.762;2023-07-31T02:00:45;99220.56;;;26.93;44.53
28630;BME280;15817;42.130;24.762;2023-07-31T02:03:11;99225.25;;;26.91;44.41
28630;BME280;15817;42.130;24.762;2023-07-31T02:05:46;99222.78;;;26.88;44.84
28630;BME280;15817;42.130;24.762;2023-07-31T02:08:12;99226.50;;;26.87;44.73
28630;BME280;15817;42.130;24.762;2023-07-31T02:10:41;99228.75;;;26.82;44.61
28630;BME280;15817;42.130;24.762;2023-07-31T02:13:07;99225.28;;;26.80;44.92
28630;BME280;15817;42.130;24.762;2023-07-31T02:15:33;99230.25;;;26.86;44.64
28630;BME280;15817;42.130;24.762;2023-07-31T02:17:58;99227.63;;;26.85;44.70
28630;BME280;15817;42.130;24.762;2023-07-31T02:20:25;99227.63;;;26.85;44.65
28630;BME280;15817;42.130;24.762;2023-07-31T02:22:51;99217.09;;;26.80;44.53
28630;BME280;15817;42.130;24.762;2023-07-31T02:25:16;99217.19;;;26.79;44.79
28630;BME280;15817;42.130;24.762;2023-07-31T02:27:44;99223.66;;;26.78;44.76
28630;BME280;15817;42.130;24.762;2023-07-31T02:30:11;99218.34;;;26.76;45.16
28630;BME280;15817;42.130;24.762;2023-07-31T02:32:37;99213.25;;;26.72;45.47
28630;BME280;15817;42.130;24.762;2023-07-31T02:35:05;99206.19;;;26.69;45.84
28630;BME280;15817;42.130;24.762;2023-07-31T02:37:33;99200.97;;;26.77;46.42
28630;BME280;15817;42.130;24.762;2023-07-31T02:40:02;99200.38;;;26.74;47.99
28630;BME280;15817;42.130;24.762;2023-07-31T02:42:28;99206.19;;;26.69;49.35
28630;BME280;15817;42.130;24.762;2023-07-31T02:44:54;99196.66;;;26.63;51.00
28630;BME280;15817;42.130;24.762;2023-07-31T02:47:22;99199.66;;;26.60;51.54
28630;BME280;15817;42.130;24.762;2023-07-31T02:49:48;99193.69;;;26.55;52.38
28630;BME280;15817;42.130;24.762;2023-07-31T02:52:14;99193.34;;;26.49;53.37
28630;BME280;15817;42.130;24.762;2023-07-31T02:54:39;99199.41;;;26.52;54.03
28630;BME280;15817;42.130;24.762;2023-07-31T02:57:05;99187.50;;;26.53;54.60
28630;BME280;15817;42.130;24.762;2023-07-31T02:59:31;99194.81;;;26.53;54.91
28630;BME280;15817;42.130;24.762;2023-07-31T03:01:59;99189.88;;;26.47;55.80
28630;BME280;15817;42.130;24.762;2023-07-31T03:04:25;99186.25;;;26.46;56.44
28630;BME280;15817;42.130;24.762;2023-07-31T03:06:51;99189.00;;;26.46;56.96
28630;BME280;15817;42.130;24.762;2023-07-31T03:09:17;99191.34;;;26.51;57.21
28630;BME280;15817;42.130;24.762;2023-07-31T03:11:46;99184.41;;;26.47;57.25
28630;BME280;15817;42.130;24.762;2023-07-31T03:14:11;99187.50;;;26.53;57.33
28630;BME280;15817;42.130;24.762;2023-07-31T03:16:37;99190.72;;;26.47;57.96
28630;BME280;15817;42.130;24.762;2023-07-31T03:19:03;99183.06;;;26.30;59.49
28630;BME280;15817;42.130;24.762;2023-07-31T03:21:29;99204.34;;;26.25;62.29
28630;BME280;15817;42.130;24.762;2023-07-31T03:23:54;99197.03;;;26.14;66.83
28630;BME280;15817;42.130;24.762;2023-07-31T03:26:21;99205.22;;;26.03;71.31
28630;BME280;15817;42.130;24.762;2023-07-31T03:28:47;99209.28;;;25.97;73.60
28630;BME280;15817;42.130;24.762;2023-07-31T03:31:15;99210.41;;;25.95;74.80
28630;BME280;15817;42.130;24.762;2023-07-31T03:33:40;99215.88;;;25.95;76.95
28630;BME280;15817;42.130;24.762;2023-07-31T03:36:06;99219.19;;;25.98;77.09
28630;BME280;15817;42.130;24.762;2023-07-31T03:38:35;99229.34;;;25.96;77.21
28630;BME280;15817;42.130;24.762;2023-07-31T03:41:06;99236.31;;;26.01;78.19
28630;BME280;15817;42.130;24.762;2023-07-31T03:43:32;99218.44;;;25.85;81.11
28630;BME280;15817;42.130;24.762;2023-07-31T03:46:03;99234.06;;;25.83;80.97
28630;BME280;15817;42.130;24.762;2023-07-31T03:48:32;99251.09;;;25.74;81.18
28630;BME280;15817;42.130;24.762;2023-07-31T03:50:57;99244.63;;;25.64;82.61
28630;BME280;15817;42.130;24.762;2023-07-31T03:53:26;99271.91;;;25.51;85.56
28630;BME280;15817;42.130;24.762;2023-07-31T03:55:52;99273.22;;;25.35;88.43
28630;BME280;15817;42.130;24.762;2023-07-31T03:58:18;99268.34;;;25.27;89.50
28630;BME280;15817;42.130;24.762;2023-07-31T04:00:45;99268.72;;;25.22;91.10
28630;BME280;15817;42.130;24.762;2023-07-31T04:03:11;99272.63;;;25.18;90.01
28630;BME280;15817;42.130;24.762;2023-07-31T04:05:38;99279.22;;;25.27;90.18
28630;BME280;15817;42.130;24.762;2023-07-31T04:08:04;99273.41;;;25.20;89.51
28630;BME280;15817;42.130;24.762;2023-07-31T04:10:29;99269.28;;;25.15;90.43
28630;BME280;15817;42.130;24.762;2023-07-31T04:12:59;99287.88;;;25.21;91.69
28630;BME280;15817;42.130;24.762;2023-07-31T04:15:26;99281.56;;;25.20;92.24
28630;BME280;15817;42.130;24.762;2023-07-31T04:17:54;99282.66;;;25.18;92.02
28630;BME280;15817;42.130;24.762;2023-07-31T04:20:31;99286.47;;;25.15;93.65
28630;BME280;15817;42.130;24.762;2023-07-31T04:22:57;99287.16;;;25.06;94.49
28630;BME280;15817;42.130;24.762;2023-07-31T04:25:42;99294.00;;;25.12;95.39
28630;BME280;15817;42.130;24.762;2023-07-31T04:28:08;99288.63;;;24.99;95.18
28630;BME280;15817;42.130;24.762;2023-07-31T04:30:38;99297.19;;;25.06;95.64
28630;BME280;15817;42.130;24.762;2023-07-31T04:33:07;99293.84;;;25.02;95.95
28630;BME280;15817;42.130;24.762;2023-07-31T04:35:35;99291.44;;;24.98;96.21
28630;BME280;15817;42.130;24.762;2023-07-31T04:38:02;99293.94;;;25.01;95.49
28630;BME280;15817;42.130;24.762;2023-07-31T04:40:28;99301.75;;;25.05;95.88
28630;BME280;15817;42.130;24.762;2023-07-31T04:43:07;99290.03;;;24.92;95.61
28630;BME280;15817;42.130;24.762;2023-07-31T04:45:32;99287.97;;;24.83;93.02
28630;BME280;15817;42.130;24.762;2023-07-31T04:47:58;99295.16;;;24.84;95.00
28630;BME280;15817;42.130;24.762;2023-07-31T04:50:24;99297.53;;;24.88;93.49
28630;BME280;15817;42.130;24.762;2023-07-31T04:52:50;99304.28;;;24.96;93.04
28630;BME280;15817;42.130;24.762;2023-07-31T04:55:21;99287.84;;;24.97;92.62
28630;BME280;15817;42.130;24.762;2023-07-31T04:57:46;99296.41;;;25.04;92.85
28630;BME280;15817;42.130;24.762;2023-07-31T05:00:12;99300.88;;;25.05;92.43
28630;BME280;15817;42.130;24.762;2023-07-31T05:02:40;99286.41;;;25.04;92.91
28630;BME280;15817;42.130;24.762;2023-07-31T05:05:06;99292.59;;;25.06;92.50
28630;BME280;15817;42.130;24.762;2023-07-31T05:07:32;99291.28;;;25.12;93.00
28630;BME280;15817;42.130;24.762;2023-07-31T05:09:58;99299.25;;;25.15;93.02
28630;BME280;15817;42.130;24.762;2023-07-31T05:12:24;99294.78;;;25.14;94.07
28630;BME280;15817;42.130;24.762;2023-07-31T05:14:49;99293.47;;;25.07;93.08
28630;BME280;15817;42.130;24.762;2023-07-31T05:17:15;99297.44;;;25.03;93.13
28630;BME280;15817;42.130;24.762;2023-07-31T05:19:41;99296.41;;;25.04;93.04
28630;BME280;15817;42.130;24.762;2023-07-31T05:22:07;99295.31;;;25.06;92.41
28630;BME280;15817;42.130;24.762;2023-07-31T05:28:27;99295.22;;;25.08;92.92
28630;BME280;15817;42.130;24.762;2023-07-31T05:30:59;99295.44;;;25.05;91.62
28630;BME280;15817;42.130;24.762;2023-07-31T05:33:24;99293.25;;;25.10;91.90
28630;BME280;15817;42.130;24.762;2023-07-31T05:35:50;99304.25;;;25.08;90.05
28630;BME280;15817;42.130;24.762;2023-07-31T05:38:16;99305.84;;;25.23;88.45
28630;BME280;15817;42.130;24.762;2023-07-31T05:40:47;99293.97;;;25.24;89.24
28630;BME280;15817;42.130;24.762;2023-07-31T05:43:14;99315.84;;;25.23;89.18
28630;BME280;15817;42.130;24.762;2023-07-31T05:45:43;99311.31;;;25.11;88.54
28630;BME280;15817;42.130;24.762;2023-07-31T05:48:09;99313.69;;;25.15;90.08
28630;BME280;15817;42.130;24.762;2023-07-31T05:50:38;99324.50;;;25.04;91.33
28630;BME280;15817;42.130;24.762;2023-07-31T05:53:09;99315.38;;;24.93;90.47
28630;BME280;15817;42.130;24.762;2023-07-31T05:55:37;99319.19;;;24.90;89.47
28630;BME280;15817;42.130;24.762;2023-07-31T05:58:03;99310.72;;;24.95;89.91
28630;BME280;15817;42.130;24.762;2023-07-31T06:00:37;99322.03;;;25.01;88.84
28630;BME280;15817;42.130;24.762;2023-07-31T06:03:02;99312.88;;;25.02;88.51
28630;BME280;15817;42.130;24.762;2023-07-31T06:05:31;99313.19;;;25.10;88.02
28630;BME280;15817;42.130;24.762;2023-07-31T06:07:57;99313.94;;;25.12;88.13
28630;BME280;15817;42.130;24.762;2023-07-31T06:10:23;99316.41;;;25.15;88.56
28630;BME280;15817;42.130;24.762;2023-07-31T06:12:55;99321.63;;;25.18;88.48
28630;BME280;15817;42.130;24.762;2023-07-31T06:15:20;99320.44;;;25.22;88.56
28630;BME280;15817;42.130;24.762;2023-07-31T06:17:46;99301.81;;;25.16;85.22
28630;BME280;15817;42.130;24.762;2023-07-31T06:20:12;99307.91;;;25.20;84.67
28630;BME280;15817;42.130;24.762;2023-07-31T06:22:38;99316.72;;;25.23;83.44
28630;BME280;15817;42.130;24.762;2023-07-31T06:25:04;99310.41;;;25.23;84.75
28630;BME280;15817;42.130;24.762;2023-07-31T06:27:43;99307.69;;;25.23;83.82
28630;BME280;15817;42.130;24.762;2023-07-31T06:30:08;99308.56;;;25.23;83.54
28630;BME280;15817;42.130;24.762;2023-07-31T06:32:34;99310.81;;;25.30;83.02
28630;BME280;15817;42.130;24.762;2023-07-31T06:35:01;99307.75;;;25.34;82.48
28630;BME280;15817;42.130;24.762;2023-07-31T06:37:27;99312.66;;;25.29;82.61
28630;BME280;15817;42.130;24.762;2023-07-31T06:39:52;99311.78;;;25.29;83.41
28630;BME280;15817;42.130;24.762;2023-07-31T06:42:18;99306.75;;;25.35;82.38
28630;BME280;15817;42.130;24.762;2023-07-31T06:44:46;99302.69;;;25.41;83.77
28630;BME280;15817;42.130;24.762;2023-07-31T06:47:12;99299.63;;;25.45;84.49
28630;BME280;15817;42.130;24.762;2023-07-31T06:49:38;99307.31;;;25.51;82.62
28630;BME280;15817;42.130;24.762;2023-07-31T06:52:04;99300.66;;;25.55;82.87
28630;BME280;15817;42.130;24.762;2023-07-31T06:54:30;99298.69;;;25.57;82.18
28630;BME280;15817;42.130;24.762;2023-07-31T06:56:55;99310.88;;;25.65;81.86
28630;BME280;15817;42.130;24.762;2023-07-31T06:59:21;99310.88;;;25.65;80.99
28630;BME280;15817;42.130;24.762;2023-07-31T07:01:47;99299.13;;;25.64;80.66
28630;BME280;15817;42.130;24.762;2023-07-31T07:04:13;99305.97;;;25.70;80.08
28630;BME280;15817;42.130;24.762;2023-07-31T07:06:50;99306.56;;;25.73;80.21
28630;BME280;15817;42.130;24.762;2023-07-31T07:09:16;99298.94;;;25.78;80.48
28630;BME280;15817;42.130;24.762;2023-07-31T07:11:42;99298.06;;;25.78;80.24
28630;BME280;15817;42.130;24.762;2023-07-31T07:14:07;99308.72;;;25.81;80.36
28630;BME280;15817;42.130;24.762;2023-07-31T07:16:33;99294.72;;;25.85;80.56
28630;BME280;15817;42.130;24.762;2023-07-31T07:19:02;99311.47;;;25.92;79.10
28630;BME280;15817;42.130;24.762;2023-07-31T07:21:28;99303.78;;;25.86;78.70
28630;BME280;15817;42.130;24.762;2023-07-31T07:23:57;99303.06;;;25.84;78.08
28630;BME280;15817;42.130;24.762;2023-07-31T07:26:23;99288.28;;;25.86;78.95
28630;BME280;15817;42.130;24.762;2023-07-31T07:28:52;99295.13;;;25.92;78.95
28630;BME280;15817;42.130;24.762;2023-07-31T07:31:17;99299.75;;;26.03;79.33
28630;BME280;15817;42.130;24.762;2023-07-31T07:33:46;99291.78;;;26.00;78.64
28630;BME280;15817;42.130;24.762;2023-07-31T07:36:17;99298.25;;;26.10;78.25
28630;BME280;15817;42.130;24.762;2023-07-31T07:38:43;99296.91;;;26.15;78.29
28630;BME280;15817;42.130;24.762;2023-07-31T07:41:08;99303.25;;;26.27;77.94
28630;BME280;15817;42.130;24.762;2023-07-31T07:43:34;99304.19;;;26.39;77.53
28630;BME280;15817;42.130;24.762;2023-07-31T07:46:03;99294.72;;;26.43;76.44
28630;BME280;15817;42.130;24.762;2023-07-31T07:48:31;99285.44;;;26.45;76.45
28630;BME280;15817;42.130;24.762;2023-07-31T07:51:09;99294.03;;;26.52;76.35
28630;BME280;15817;42.130;24.762;2023-07-31T07:53:35;99289.28;;;26.54;76.55
28630;BME280;15817;42.130;24.762;2023-07-31T07:56:01;99295.00;;;26.62;76.39
28630;BME280;15817;42.130;24.762;2023-07-31T07:58:32;99296.00;;;26.72;76.84
28630;BME280;15817;42.130;24.762;2023-07-31T08:00:58;99300.44;;;26.84;76.00
28630;BME280;15817;42.130;24.762;2023-07-31T08:03:26;99283.97;;;26.97;73.47
28630;BME280;15817;42.130;24.762;2023-07-31T08:05:52;99294.47;;;27.13;74.00
28630;BME280;15817;42.130;24.762;2023-07-31T08:08:24;99284.88;;;27.29;71.32
28630;BME280;15817;42.130;24.762;2023-07-31T08:10:52;99285.03;;;27.49;70.06
28630;BME280;15817;42.130;24.762;2023-07-31T08:13:21;99286.25;;;27.67;69.06
28630;BME280;15817;42.130;24.762;2023-07-31T08:15:47;99288.13;;;27.87;67.50
28630;BME280;15817;42.130;24.762;2023-07-31T08:18:16;99279.00;;;27.98;67.94
28630;BME280;15817;42.130;24.762;2023-07-31T08:20:43;99289.88;;;28.30;66.30
28630;BME280;15817;42.130;24.762;2023-07-31T08:23:09;99272.09;;;28.45;65.19
28630;BME280;15817;42.130;24.762;2023-07-31T08:25:44;99284.03;;;28.74;64.36
28630;BME280;15817;42.130;24.762;2023-07-31T08:28:13;99278.06;;;28.90;62.70
28630;BME280;15817;42.130;24.762;2023-07-31T08:30:48;99262.97;;;28.96;62.86
28630;BME280;15817;42.130;24.762;2023-07-31T08:33:13;99274.50;;;29.09;61.65
28630;BME280;15817;42.130;24.762;2023-07-31T08:35:39;99275.78;;;28.65;62.59
28630;BME280;15817;42.130;24.762;2023-07-31T08:38:05;99272.78;;;28.17;63.81
28630;BME280;15817;42.130;24.762;2023-07-31T08:40:49;99270.53;;;28.01;64.72
28630;BME280;15817;42.130;24.762;2023-07-31T08:43:17;99277.63;;;28.55;64.28
28630;BME280;15817;42.130;24.762;2023-07-31T08:45:44;99272.22;;;29.04;62.07
28630;BME280;15817;42.130;24.762;2023-07-31T08:48:25;99275.56;;;29.17;60.41
28630;BME280;15817;42.130;24.762;2023-07-31T08:51:06;99284.41;;;29.40;59.09
28630;BME280;15817;42.130;24.762;2023-07-31T08:53:37;99266.97;;;29.70;58.11
28630;BME280;15817;42.130;24.762;2023-07-31T08:56:11;99284.28;;;30.09;56.20
28630;BME280;15817;42.130;24.762;2023-07-31T08:58:49;99274.16;;;30.19;56.81
28630;BME280;15817;42.130;24.762;2023-07-31T09:01:16;99280.66;;;30.09;56.12
28630;BME280;15817;42.130;24.762;2023-07-31T09:03:46;99278.31;;;30.33;54.40
28630;BME280;15817;42.130;24.762;2023-07-31T09:06:13;99283.13;;;29.83;56.38
28630;BME280;15817;42.130;24.762;2023-07-31T09:08:44;99274.47;;;29.49;56.91
28630;BME280;15817;42.130;24.762;2023-07-31T09:11:10;99264.88;;;29.34;57.13
28630;BME280;15817;42.130;24.762;2023-07-31T09:13:41;99258.44;;;29.44;56.38
28630;BME280;15817;42.130;24.762;2023-07-31T09:16:08;99271.13;;;29.94;55.32
28630;BME280;15817;42.130;24.762;2023-07-31T09:21:53;99272.13;;;30.68;52.23
28630;BME280;15817;42.130;24.762;2023-07-31T09:24:26;99259.53;;;31.03;51.72
28630;BME280;15817;42.130;24.762;2023-07-31T09:26:56;99269.63;;;31.29;50.88
28630;BME280;15817;42.130;24.762;2023-07-31T09:29:28;99270.59;;;30.83;49.95
28630;BME280;15817;42.130;24.762;2023-07-31T09:32:01;99257.69;;;30.66;48.81
28630;BME280;15817;42.130;24.762;2023-07-31T09:34:36;99253.13;;;31.12;47.78
28630;BME280;15817;42.130;24.762;2023-07-31T09:37:14;99257.38;;;30.69;49.24
28630;BME280;15817;42.130;24.762;2023-07-31T09:39:49;99244.69;;;30.21;50.80
28630;BME280;15817;42.130;24.762;2023-07-31T09:42:29;99248.94;;;29.97;50.92
28630;BME280;15817;42.130;24.762;2023-07-31T09:45:07;99239.94;;;29.95;51.82
28630;BME280;15817;42.130;24.762;2023-07-31T09:47:36;99243.00;;;30.57;51.05
28630;BME280;15817;42.130;24.762;2023-07-31T09:50:07;99240.66;;;31.17;48.45
28630;BME280;15817;42.130;24.762;2023-07-31T09:52:33;99239.00;;;31.42;46.72
28630;BME280;15817;42.130;24.762;2023-07-31T09:54:58;99243.28;;;31.37;47.08
28630;BME280;15817;42.130;24.762;2023-07-31T09:57:24;99242.19;;;31.83;46.23
28630;BME280;15817;42.130;24.762;2023-07-31T09:59:55;99247.41;;;31.41;47.91
28630;BME280;15817;42.130;24.762;2023-07-31T10:02:22;99245.47;;;31.33;47.54
28630;BME280;15817;42.130;24.762;2023-07-31T10:04:49;99237.13;;;31.78;46.20
28630;BME280;15817;42.130;24.762;2023-07-31T10:07:25;99229.56;;;31.62;46.02
28630;BME280;15817;42.130;24.762;2023-07-31T10:09:54;99228.56;;;31.10;47.00
28630;BME280;15817;42.130;24.762;2023-07-31T10:12:34;99230.13;;;30.85;48.35
28630;BME280;15817;42.130;24.762;2023-07-31T10:15:20;99225.53;;;31.04;47.02
28630;BME280;15817;42.130;24.762;2023-07-31T10:17:49;99217.41;;;31.29;47.99
28630;BME280;15817;42.130;24.762;2023-07-31T10:20:23;99223.19;;;31.72;45.47
28630;BME280;15817;42.130;24.762;2023-07-31T10:22:51;99218.06;;;32.02;45.96
28630;BME280;15817;42.130;24.762;2023-07-31T10:28:49;99206.72;;;32.65;44.28
28630;BME280;15817;42.130;24.762;2023-07-31T10:31:22;99210.44;;;32.74;42.78
28630;BME280;15817;42.130;24.762;2023-07-31T10:33:52;99202.22;;;32.90;43.00
28630;BME280;15817;42.130;24.762;2023-07-31T10:36:19;99205.38;;;33.12;42.65
28630;BME280;15817;42.130;24.762;2023-07-31T10:38:55;99205.56;;;33.10;41.09
28630;BME280;15817;42.130;24.762;2023-07-31T10:41:39;99200.91;;;33.19;41.74
28630;BME280;15817;42.130;24.762;2023-07-31T10:44:12;99188.34;;;33.16;41.34
28630;BME280;15817;42.130;24.762;2023-07-31T10:46:45;99184.22;;;33.20;42.70
28630;BME280;15817;42.130;24.762;2023-07-31T10:49:21;99183.06;;;33.39;41.62
28630;BME280;15817;42.130;24.762;2023-07-31T10:51:47;99193.56;;;33.60;40.73
28630;BME280;15817;42.130;24.762;2023-07-31T10:54:16;99171.78;;;33.16;40.82
28630;BME280;15817;42.130;24.762;2023-07-31T10:56:50;99166.78;;;33.12;41.96
28630;BME280;15817;42.130;24.762;2023-07-31T10:59:18;99163.16;;;33.03;41.65
28630;BME280;15817;42.130;24.762;2023-07-31T11:01:56;99166.31;;;33.24;41.53
28630;BME280;15817;42.130;24.762;2023-07-31T11:04:28;99168.75;;;33.43;40.73
28630;BME280;15817;42.130;24.762;2023-07-31T11:07:02;99174.97;;;32.79;42.39
28630;BME280;15817;42.130;24.762;2023-07-31T11:09:33;99161.47;;;32.26;42.22
28630;BME280;15817;42.130;24.762;2023-07-31T11:11:59;99162.28;;;31.92;42.47
28630;BME280;15817;42.130;24.762;2023-07-31T11:14:33;99164.81;;;32.37;41.81
28630;BME280;15817;42.130;24.762;2023-07-31T11:16:59;99180.22;;;32.98;40.89
28630;BME280;15817;42.130;24.762;2023-07-31T11:19:38;99176.59;;;32.98;39.73
28630;BME280;15817;42.130;24.762;2023-07-31T11:22:17;99172.78;;;32.49;41.00
28630;BME280;15817;42.130;24.762;2023-07-31T11:24:45;99182.69;;;32.08;46.42
28630;BME280;15817;42.130;24.762;2023-07-31T11:27:12;99189.50;;;31.78;48.22
28630;BME280;15817;42.130;24.762;2023-07-31T11:29:38;99176.84;;;31.85;48.57
28630;BME280;15817;42.130;24.762;2023-07-31T11:32:04;99178.69;;;31.58;50.34
28630;BME280;15817;42.130;24.762;2023-07-31T11:34:30;99175.84;;;31.50;50.32
28630;BME280;15817;42.130;24.762;2023-07-31T11:36:55;99161.56;;;31.29;49.57
28630;BME280;15817;42.130;24.762;2023-07-31T11:39:33;99163.88;;;31.95;48.55
28630;BME280;15817;42.130;24.762;2023-07-31T11:42:02;99171.31;;;32.28;47.76
28630;BME280;15817;42.130;24.762;2023-07-31T11:44:38;99168.47;;;32.54;47.25
28630;BME280;15817;42.130;24.762;2023-07-31T11:47:15;99164.06;;;32.69;46.92
28630;BME280;15817;42.130;24.762;2023-07-31T11:49:44;99168.13;;;32.91;45.99
28630;BME280;15817;42.130;24.762;2023-07-31T11:52:13;99167.25;;;32.83;45.52
28630;BME280;15817;42.130;24.762;2023-07-31T11:54:46;99159.84;;;32.83;45.25
28630;BME280;15817;42.130;24.762;2023-07-31T12:00:22;99159.59;;;32.68;44.66
28630;BME280;15817;42.130;24.762;2023-07-31T12:06:01;99161.28;;;31.93;47.55
28630;BME280;15817;42.130;24.762;2023-07-31T12:08:27;99164.00;;;31.67;49.89
28630;BME280;15817;42.130;24.762;2023-07-31T12:11:04;99157.41;;;31.86;49.91
28630;BME280;15817;42.130;24.762;2023-07-31T12:13:33;99146.78;;;31.65;49.55
28630;BME280;15817;42.130;24.762;2023-07-31T12:16:03;99143.09;;;32.09;48.50
28630;BME280;15817;42.130;24.762;2023-07-31T12:18:33;99139.88;;;32.39;47.74
28630;BME280;15817;42.130;24.762;2023-07-31T12:21:02;99137.38;;;32.62;47.57
28630;BME280;15817;42.130;24.762;2023-07-31T12:23:38;99133.16;;;32.76;47.01
28630;BME280;15817;42.130;24.762;2023-07-31T12:26:07;99129.69;;;32.82;46.50
28630;BME280;15817;42.130;24.762;2023-07-31T12:28:54;99133.00;;;32.93;46.03
28630;BME280;15817;42.130;24.762;2023-07-31T12:31:22;99119.38;;;32.92;45.95
28630;BME280;15817;42.130;24.762;2023-07-31T12:33:50;99125.44;;;33.12;45.73
28630;BME280;15817;42.130;24.762;2023-07-31T12:36:21;99115.63;;;33.09;45.33
28630;BME280;15817;42.130;24.762;2023-07-31T12:38:49;99107.19;;;33.11;44.99
28630;BME280;15817;42.130;24.762;2023-07-31T12:41:15;99114.06;;;33.15;44.66
28630;BME280;15817;42.130;24.762;2023-07-31T12:43:43;99125.13;;;33.23;44.65
28630;BME280;15817;42.130;24.762;2023-07-31T12:46:12;99123.75;;;33.19;43.78
28630;BME280;15817;42.130;24.762;2023-07-31T12:48:38;99123.25;;;33.23;43.99
28630;BME280;15817;42.130;24.762;2023-07-31T12:51:05;99116.84;;;33.23;43.64
28630;BME280;15817;42.130;24.762;2023-07-31T12:53:32;99111.00;;;33.26;43.06
28630;BME280;15817;42.130;24.762;2023-07-31T12:55:58;99114.63;;;33.26;42.46
28630;BME280;15817;42.130;24.762;2023-07-31T12:58:24;99116.72;;;33.32;42.86
28630;BME280;15817;42.130;24.762;2023-07-31T13:00:51;99114.66;;;33.42;42.02
28630;BME280;15817;42.130;24.762;2023-07-31T13:03:16;99112.19;;;33.07;41.91
28630;BME280;15817;42.130;24.762;2023-07-31T13:05:47;99111.97;;;32.84;44.95
28630;BME280;15817;42.130;24.762;2023-07-31T13:08:18;99097.59;;;32.56;47.12
28630;BME280;15817;42.130;24.762;2023-07-31T13:10:47;99101.09;;;32.24;48.34
28630;BME280;15817;42.130;24.762;2023-07-31T13:13:16;99087.13;;;31.84;50.00
28630;BME280;15817;42.130;24.762;2023-07-31T13:15:41;99095.69;;;31.81;50.26
28630;BME280;15817;42.130;24.762;2023-07-31T13:18:07;99096.72;;;31.80;50.85